^^
Station Historical Data
Daily Summary for November 23, 2017 Units:  Both    English   Metric
« Previous Day
Next Day »
Daily Weekly Monthly Yearly Custom
  High: Low: Average:
Temperature: TemperatureF °F /  -17.8 °C 59.7 °F /  15.4 °C 75.7 °F /  24.3 °C
Dew Point: DewpointF °F /  -17.8 °C 23.5 °F /  -4.7 °C 31 °F /  -0.6 °C
Humidity: Humidity% 12% 21%
Wind Speed: WindSpeedMPHmph /  0km/h - 1.9mph /  3.1km/h
Wind Gust: WindSpeedGustMPHmph /  0km/h - -
Wind- - SSW
Pressure: PressureIn in /  0 hPa 29.62 in /  1002.9 hPa -
Precipitation: 0.00 in /  0 mm    
Historical Graphs
 
 
Tabular Data for November 23, 2017
Time Temperature Dew Point Pressure Wind Wind Speed Wind Gust Humidity Rainfall Rate (Hourly) solar Conditions
TemperatureF °F /  -17.8 °C DewpointF °F /  -17.8 °C PressureInin /  0hPa Calm     Humidity% HourlyPrecipInin /  0mm SolarRadiationWatts/m^2 W/m2 Conditions
00:07 68.7 °F /  20.4 °C 23.5 °F /  -4.7 °C 29.78in /  1008.4hPa Calm     18% 0.00in /  0mm 0.0 W/m2
00:18 68.4 °F /  20.2 °C 27.0 °F /  -2.8 °C 29.77in /  1008hPa Calm   1.0mph /  1.6km/h 21% 0.00in /  0mm 0.0 W/m2
00:28 67.8 °F /  19.9 °C 27.5 °F /  -2.5 °C 29.76in /  1007.7hPa Calm     22% 0.00in /  0mm 0.0 W/m2
00:33 67.6 °F /  19.8 °C 27.5 °F /  -2.5 °C 29.76in /  1007.7hPa Calm   1.0mph /  1.6km/h 22% 0.00in /  0mm 0.0 W/m2
00:43 66.7 °F /  19.3 °C 27.7 °F /  -2.4 °C 29.76in /  1007.7hPa Calm   1.0mph /  1.6km/h 23% 0.00in /  0mm 0.0 W/m2
00:49 66.6 °F /  19.2 °C 28.6 °F /  -1.9 °C 29.76in /  1007.7hPa Calm     24% 0.00in /  0mm 0.0 W/m2
00:54 66.0 °F /  18.9 °C 29.1 °F /  -1.6 °C 29.75in /  1007.3hPa Calm   1.0mph /  1.6km/h 25% 0.00in /  0mm 0.0 W/m2
00:59 65.8 °F /  18.8 °C 28.9 °F /  -1.7 °C 29.75in /  1007.3hPa Calm     25% 0.00in /  0mm 0.0 W/m2
01:04 65.7 °F /  18.7 °C 29.8 °F /  -1.2 °C 29.75in /  1007.3hPa Calm   1.0mph /  1.6km/h 26% 0.00in /  0mm 0.0 W/m2
01:09 65.5 °F /  18.6 °C 30.6 °F /  -0.8 °C 29.75in /  1007.3hPa Calm   1.0mph /  1.6km/h 27% 0.00in /  0mm 0.0 W/m2
01:14 65.1 °F /  18.4 °C 30.4 °F /  -0.9 °C 29.75in /  1007.3hPa ENE 0.9mph /  1.4km/h 1.0mph /  1.6km/h 27% 0.00in /  0mm 0.0 W/m2
01:19 65.1 °F /  18.4 °C 30.4 °F /  -0.9 °C 29.75in /  1007.3hPa Calm   1.0mph /  1.6km/h 27% 0.00in /  0mm 0.0 W/m2
01:24 64.9 °F /  18.3 °C 31.1 °F /  -0.5 °C 29.75in /  1007.3hPa Calm   2.0mph /  3.2km/h 28% 0.00in /  0mm 0.0 W/m2
01:29 64.9 °F /  18.3 °C 31.1 °F /  -0.5 °C 29.75in /  1007.3hPa SE 2.0mph /  3.2km/h 2.0mph /  3.2km/h 28% 0.00in /  0mm 0.0 W/m2
01:45 65.1 °F /  18.4 °C 31.3 °F /  -0.4 °C 29.74in /  1007hPa Calm   2.0mph /  3.2km/h 28% 0.00in /  0mm 0.0 W/m2
01:50 65.5 °F /  18.6 °C 30.6 °F /  -0.8 °C 29.74in /  1007hPa Calm   3.0mph /  4.8km/h 27% 0.00in /  0mm 0.0 W/m2
01:55 65.5 °F /  18.6 °C 30.6 °F /  -0.8 °C 29.74in /  1007hPa ENE 4.0mph /  6.4km/h 4.0mph /  6.4km/h 27% 0.00in /  0mm 0.0 W/m2
02:00 65.5 °F /  18.6 °C 30.6 °F /  -0.8 °C 29.74in /  1007hPa East 2.0mph /  3.2km/h 2.0mph /  3.2km/h 27% 0.00in /  0mm 0.0 W/m2
02:06 65.3 °F /  18.5 °C 30.4 °F /  -0.9 °C 29.74in /  1007hPa ESE 4.9mph /  7.9km/h 5.0mph /  8km/h 27% 0.00in /  0mm 0.0 W/m2
02:11 65.5 °F /  18.6 °C 30.6 °F /  -0.8 °C 29.74in /  1007hPa SE 0.9mph /  1.4km/h 3.0mph /  4.8km/h 27% 0.00in /  0mm 0.0 W/m2
02:16 65.7 °F /  18.7 °C 30.7 °F /  -0.7 °C 29.73in /  1006.7hPa ESE 2.0mph /  3.2km/h 3.0mph /  4.8km/h 27% 0.00in /  0mm 0.0 W/m2
02:22 65.7 °F /  18.7 °C 30.7 °F /  -0.7 °C 29.73in /  1006.7hPa SE 2.9mph /  4.7km/h 4.0mph /  6.4km/h 27% 0.00in /  0mm 0.0 W/m2
02:31 66.0 °F /  18.9 °C 30.2 °F /  -1 °C 29.73in /  1006.7hPa ESE 6.9mph /  11.1km/h 9.0mph /  14.5km/h 26% 0.00in /  0mm 0.0 W/m2
02:36 66.6 °F /  19.2 °C 29.7 °F /  -1.3 °C 29.73in /  1006.7hPa Calm   10.0mph /  16.1km/h 25% 0.00in /  0mm 0.0 W/m2
02:41 66.7 °F /  19.3 °C 29.8 °F /  -1.2 °C 29.73in /  1006.7hPa ESE 2.0mph /  3.2km/h 7.0mph /  11.3km/h 25% 0.00in /  0mm 0.0 W/m2
02:46 66.9 °F /  19.4 °C 30.0 °F /  -1.1 °C 29.72in /  1006.3hPa SSE 4.0mph /  6.4km/h 7.0mph /  11.3km/h 25% 0.00in /  0mm 0.0 W/m2
02:51 66.9 °F /  19.4 °C 30.0 °F /  -1.1 °C 29.73in /  1006.7hPa SE 2.9mph /  4.7km/h 5.0mph /  8km/h 25% 0.00in /  0mm 0.0 W/m2
03:01 66.9 °F /  19.4 °C 30.0 °F /  -1.1 °C 29.72in /  1006.3hPa South 2.0mph /  3.2km/h 6.0mph /  9.7km/h 25% 0.00in /  0mm 0.0 W/m2
03:12 66.9 °F /  19.4 °C 30.0 °F /  -1.1 °C 29.72in /  1006.3hPa NE 4.0mph /  6.4km/h 8.0mph /  12.9km/h 25% 0.00in /  0mm 0.0 W/m2
03:23 66.7 °F /  19.3 °C 29.8 °F /  -1.2 °C 29.72in /  1006.3hPa SE 2.9mph /  4.7km/h 10.0mph /  16.1km/h 25% 0.00in /  0mm 0.0 W/m2
03:28 66.7 °F /  19.3 °C 29.8 °F /  -1.2 °C 29.72in /  1006.3hPa ENE 2.0mph /  3.2km/h 4.0mph /  6.4km/h 25% 0.00in /  0mm 0.0 W/m2
03:33 66.6 °F /  19.2 °C 29.7 °F /  -1.3 °C 29.72in /  1006.3hPa SE 0.9mph /  1.4km/h 6.0mph /  9.7km/h 25% 0.00in /  0mm 0.0 W/m2
03:38 66.6 °F /  19.2 °C 29.7 °F /  -1.3 °C 29.72in /  1006.3hPa Calm   8.0mph /  12.9km/h 25% 0.00in /  0mm 0.0 W/m2
03:43 66.6 °F /  19.2 °C 29.7 °F /  -1.3 °C 29.72in /  1006.3hPa SE 0.9mph /  1.4km/h 5.0mph /  8km/h 25% 0.00in /  0mm 0.0 W/m2
03:54 66.4 °F /  19.1 °C 29.5 °F /  -1.4 °C 29.72in /  1006.3hPa East 6.0mph /  9.7km/h 7.0mph /  11.3km/h 25% 0.00in /  0mm 0.0 W/m2
03:59 66.2 °F /  19 °C 29.3 °F /  -1.5 °C 29.72in /  1006.3hPa Calm   6.0mph /  9.7km/h 25% 0.00in /  0mm 0.0 W/m2
04:04 66.2 °F /  19 °C 30.4 °F /  -0.9 °C 29.71in /  1006hPa ENE 4.9mph /  7.9km/h 7.0mph /  11.3km/h 26% 0.00in /  0mm 0.0 W/m2
04:09 66.0 °F /  18.9 °C 30.2 °F /  -1 °C 29.71in /  1006hPa Calm   6.0mph /  9.7km/h 26% 0.00in /  0mm 0.0 W/m2
04:15 65.8 °F /  18.8 °C 30.9 °F /  -0.6 °C 29.71in /  1006hPa Calm   4.0mph /  6.4km/h 27% 0.00in /  0mm 0.0 W/m2
04:20 65.7 °F /  18.7 °C 30.7 °F /  -0.7 °C 29.71in /  1006hPa ENE 0.9mph /  1.4km/h 2.0mph /  3.2km/h 27% 0.00in /  0mm 0.0 W/m2
04:25 65.7 °F /  18.7 °C 30.7 °F /  -0.7 °C 29.72in /  1006.3hPa East 4.0mph /  6.4km/h 7.0mph /  11.3km/h 27% 0.00in /  0mm 0.0 W/m2
04:30 65.5 °F /  18.6 °C 31.5 °F /  -0.3 °C 29.72in /  1006.3hPa Calm   7.0mph /  11.3km/h 28% 0.00in /  0mm 0.0 W/m2
04:35 65.3 °F /  18.5 °C 31.3 °F /  -0.4 °C 29.72in /  1006.3hPa Calm   5.0mph /  8km/h 28% 0.00in /  0mm 0.0 W/m2
04:45 64.9 °F /  18.3 °C 32.0 °F /  0 °C 29.71in /  1006hPa East 2.0mph /  3.2km/h 4.0mph /  6.4km/h 29% 0.00in /  0mm 0.0 W/m2
04:50 64.8 °F /  18.2 °C 32.5 °F /  0.3 °C 29.71in /  1006hPa Calm   4.0mph /  6.4km/h 30% 0.00in /  0mm 0.0 W/m2
05:01 64.6 °F /  18.1 °C 34.0 °F /  1.1 °C 29.72in /  1006.3hPa NE 4.0mph /  6.4km/h 4.0mph /  6.4km/h 32% 0.00in /  0mm 0.0 W/m2
05:06 64.4 °F /  18 °C 34.0 °F /  1.1 °C 29.72in /  1006.3hPa Calm   3.0mph /  4.8km/h 32% 0.00in /  0mm 0.0 W/m2
05:12 64.0 °F /  17.8 °C 32.7 °F /  0.4 °C 29.72in /  1006.3hPa SE 0.9mph /  1.4km/h 4.0mph /  6.4km/h 31% 0.00in /  0mm 0.0 W/m2
05:21 63.5 °F /  17.5 °C 32.4 °F /  0.2 °C 29.72in /  1006.3hPa SE 2.0mph /  3.2km/h 5.0mph /  8km/h 31% 0.00in /  0mm 0.0 W/m2
05:27 63.1 °F /  17.3 °C 32.7 °F /  0.4 °C 29.72in /  1006.3hPa Calm   1.0mph /  1.6km/h 32% 0.00in /  0mm 0.0 W/m2
05:32 62.8 °F /  17.1 °C 32.5 °F /  0.3 °C 29.72in /  1006.3hPa Calm     32% 0.00in /  0mm 0.0 W/m2
05:40 62.4 °F /  16.9 °C 32.9 °F /  0.5 °C 29.72in /  1006.3hPa Calm   2.0mph /  3.2km/h 33% 0.00in /  0mm 0.0 W/m2
06:03 61.7 °F /  16.5 °C 33.8 °F /  1 °C 29.72in /  1006.3hPa Calm   1.0mph /  1.6km/h 35% 0.00in /  0mm 0.0 W/m2
06:04 61.7 °F /  16.5 °C 33.8 °F /  1 °C 29.72in /  1006.3hPa Calm   1.0mph /  1.6km/h 35% 0.00in /  0mm 5.0 W/m2
06:09 61.3 °F /  16.3 °C 33.4 °F /  0.8 °C 29.73in /  1006.7hPa Calm   1.0mph /  1.6km/h 35% 0.00in /  0mm 7.0 W/m2
06:15 61.2 °F /  16.2 °C 34.0 °F /  1.1 °C 29.73in /  1006.7hPa East 0.9mph /  1.4km/h 3.0mph /  4.8km/h 36% 0.00in /  0mm 9.0 W/m2
06:29 60.3 °F /  15.7 °C 33.8 °F /  1 °C 29.74in /  1007hPa Calm     37% 0.00in /  0mm 14.0 W/m2
06:34 60.1 °F /  15.6 °C 34.3 °F /  1.3 °C 29.73in /  1006.7hPa Calm     38% 0.00in /  0mm 14.0 W/m2
06:40 59.9 °F /  15.5 °C 36.1 °F /  2.3 °C 29.74in /  1007hPa Calm     41% 0.00in /  0mm 16.0 W/m2
06:45 59.7 °F /  15.4 °C 36.5 °F /  2.5 °C 29.74in /  1007hPa Calm     42% 0.00in /  0mm 18.0 W/m2
06:50 59.9 °F /  15.5 °C 36.7 °F /  2.6 °C 29.74in /  1007hPa Calm     42% 0.00in /  0mm 19.0 W/m2
07:01 60.3 °F /  15.7 °C 38.8 °F /  3.8 °C 29.74in /  1007hPa Calm     45% 0.00in /  0mm 21.0 W/m2
07:06 60.4 °F /  15.8 °C 38.5 °F /  3.6 °C 29.74in /  1007hPa Calm     44% 0.00in /  0mm 23.0 W/m2
07:12 61.0 °F /  16.1 °C 37.8 °F /  3.2 °C 29.74in /  1007hPa Calm     42% 0.00in /  0mm 25.0 W/m2
07:17 61.2 °F /  16.2 °C 37.9 °F /  3.3 °C 29.75in /  1007.3hPa Calm     42% 0.00in /  0mm 32.0 W/m2
07:22 61.5 °F /  16.4 °C 35.6 °F /  2 °C 29.75in /  1007.3hPa Calm     38% 0.00in /  0mm 246.0 W/m2
07:28 62.2 °F /  16.8 °C 34.2 °F /  1.2 °C 29.74in /  1007hPa Calm     35% 0.00in /  0mm 316.0 W/m2
07:33 63.0 °F /  17.2 °C 34.9 °F /  1.6 °C 29.74in /  1007hPa Calm     35% 0.00in /  0mm 329.0 W/m2
07:38 64.2 °F /  17.9 °C 35.2 °F /  1.8 °C 29.74in /  1007hPa Calm     34% 0.00in /  0mm 357.0 W/m2
07:44 66.0 °F /  18.9 °C 36.1 °F /  2.3 °C 29.74in /  1007hPa Calm     33% 0.00in /  0mm 387.0 W/m2
07:49 67.1 °F /  19.5 °C 36.3 °F /  2.4 °C 29.74in /  1007hPa Calm     32% 0.00in /  0mm 403.0 W/m2
07:54 68.2 °F /  20.1 °C 37.2 °F /  2.9 °C 29.74in /  1007hPa Calm     32% 0.00in /  0mm 417.0 W/m2
08:15 71.1 °F /  21.7 °C 42.1 °F /  5.6 °C 29.74in /  1007hPa NNE 0.9mph /  1.4km/h 1.0mph /  1.6km/h 35% 0.00in /  0mm 501.0 W/m2
08:26 73.0 °F /  22.8 °C 43.7 °F /  6.5 °C 29.73in /  1006.7hPa Calm   3.0mph /  4.8km/h 35% 0.00in /  0mm 543.0 W/m2
08:32 73.8 °F /  23.2 °C 43.7 °F /  6.5 °C 29.73in /  1006.7hPa NE 0.9mph /  1.4km/h 3.0mph /  4.8km/h 34% 0.00in /  0mm 566.0 W/m2
08:37 74.5 °F /  23.6 °C 44.2 °F /  6.8 °C 29.73in /  1006.7hPa NNE 2.9mph /  4.7km/h 3.0mph /  4.8km/h 34% 0.00in /  0mm 580.0 W/m2
08:42 75.0 °F /  23.9 °C 43.9 °F /  6.6 °C 29.73in /  1006.7hPa Calm   1.0mph /  1.6km/h 33% 0.00in /  0mm 596.0 W/m2
08:48 75.9 °F /  24.4 °C 42.3 °F /  5.7 °C 29.73in /  1006.7hPa Calm   4.0mph /  6.4km/h 30% 0.00in /  0mm 619.0 W/m2
08:54 76.6 °F /  24.8 °C 42.1 °F /  5.6 °C 29.73in /  1006.7hPa Calm   2.0mph /  3.2km/h 29% 0.00in /  0mm 645.0 W/m2
08:59 77.2 °F /  25.1 °C 40.6 °F /  4.8 °C 29.73in /  1006.7hPa ENE 2.0mph /  3.2km/h 2.0mph /  3.2km/h 27% 0.00in /  0mm 661.0 W/m2
09:04 77.7 °F /  25.4 °C 42.1 °F /  5.6 °C 29.73in /  1006.7hPa Calm     28% 0.00in /  0mm 679.0 W/m2
09:09 78.3 °F /  25.7 °C 40.6 °F /  4.8 °C 29.73in /  1006.7hPa Calm   3.0mph /  4.8km/h 26% 0.00in /  0mm 694.0 W/m2
09:14 79.2 °F /  26.2 °C 40.3 °F /  4.6 °C 29.73in /  1006.7hPa NNW 0.9mph /  1.4km/h 4.0mph /  6.4km/h 25% 0.00in /  0mm 710.0 W/m2
09:20 79.9 °F /  26.6 °C 39.9 °F /  4.4 °C 29.73in /  1006.7hPa NNE 2.0mph /  3.2km/h 3.0mph /  4.8km/h 24% 0.00in /  0mm 729.0 W/m2
09:25 80.2 °F /  26.8 °C 41.2 °F /  5.1 °C 29.73in /  1006.7hPa ENE 6.0mph /  9.7km/h 6.0mph /  9.7km/h 25% 0.00in /  0mm 758.0 W/m2
09:30 80.6 °F /  27 °C 40.5 °F /  4.7 °C 29.73in /  1006.7hPa Calm   1.0mph /  1.6km/h 24% 0.00in /  0mm 761.0 W/m2
09:36 80.8 °F /  27.1 °C 39.6 °F /  4.2 °C 29.73in /  1006.7hPa West 2.0mph /  3.2km/h 3.0mph /  4.8km/h 23% 0.00in /  0mm 770.0 W/m2
09:41 80.8 °F /  27.1 °C 37.2 °F /  2.9 °C 29.73in /  1006.7hPa Calm   4.0mph /  6.4km/h 21% 0.00in /  0mm 803.0 W/m2
09:46 81.0 °F /  27.2 °C 37.4 °F /  3 °C 29.73in /  1006.7hPa Calm   5.0mph /  8km/h 21% 0.00in /  0mm 925.0 W/m2
09:52 81.3 °F /  27.4 °C 36.5 °F /  2.5 °C 29.73in /  1006.7hPa NNE 0.9mph /  1.4km/h 6.0mph /  9.7km/h 20% 0.00in /  0mm 592.0 W/m2
09:57 81.3 °F /  27.4 °C 33.8 °F /  1 °C 29.72in /  1006.3hPa NW 4.9mph /  7.9km/h 9.0mph /  14.5km/h 18% 0.00in /  0mm 555.0 W/m2
10:02 81.5 °F /  27.5 °C 32.5 °F /  0.3 °C 29.73in /  1006.7hPa NNW 0.9mph /  1.4km/h 7.0mph /  11.3km/h 17% 0.00in /  0mm 888.0 W/m2
10:08 81.5 °F /  27.5 °C 30.9 °F /  -0.6 °C 29.72in /  1006.3hPa WSW 2.9mph /  4.7km/h 7.0mph /  11.3km/h 16% 0.00in /  0mm 1063.0 W/m2
10:13 80.8 °F /  27.1 °C 31.8 °F /  -0.1 °C 29.73in /  1006.7hPa Calm   2.0mph /  3.2km/h 17% 0.00in /  0mm 265.0 W/m2
10:18 80.6 °F /  27 °C 31.8 °F /  -0.1 °C 29.72in /  1006.3hPa NNW 2.0mph /  3.2km/h 7.0mph /  11.3km/h 17% 0.00in /  0mm 991.0 W/m2
10:24 81.1 °F /  27.3 °C 30.7 °F /  -0.7 °C 29.72in /  1006.3hPa WSW 2.9mph /  4.7km/h 4.0mph /  6.4km/h 16% 0.00in /  0mm 974.0 W/m2
10:29 81.3 °F /  27.4 °C 30.9 °F /  -0.6 °C 29.72in /  1006.3hPa Calm   6.0mph /  9.7km/h 16% 0.00in /  0mm 937.0 W/m2
10:34 81.9 °F /  27.7 °C 31.3 °F /  -0.4 °C 29.72in /  1006.3hPa WNW 0.9mph /  1.4km/h 7.0mph /  11.3km/h 16% 0.00in /  0mm 940.0 W/m2
10:37 82.2 °F /  27.9 °C 30.0 °F /  -1.1 °C 29.72in /  1006.3hPa WSW 4.0mph /  6.4km/h 4.0mph /  6.4km/h 15% 0.00in /  0mm 949.0 W/m2
10:42 82.4 °F /  28 °C 31.6 °F /  -0.2 °C 29.72in /  1006.3hPa Calm   1.0mph /  1.6km/h 16% 0.00in /  0mm 956.0 W/m2
10:58 82.6 °F /  28.1 °C 31.8 °F /  -0.1 °C 29.72in /  1006.3hPa NW 4.0mph /  6.4km/h 7.0mph /  11.3km/h 16% 0.00in /  0mm 1009.0 W/m2
11:04 83.5 °F /  28.6 °C 30.9 °F /  -0.6 °C 29.72in /  1006.3hPa West 2.0mph /  3.2km/h 6.0mph /  9.7km/h 15% 0.00in /  0mm 1007.0 W/m2
11:09 83.7 °F /  28.7 °C 31.1 °F /  -0.5 °C 29.72in /  1006.3hPa West 6.0mph /  9.7km/h 7.0mph /  11.3km/h 15% 0.00in /  0mm 1018.0 W/m2
11:14 83.7 °F /  28.7 °C 31.1 °F /  -0.5 °C 29.72in /  1006.3hPa SE 2.0mph /  3.2km/h 8.0mph /  12.9km/h 15% 0.00in /  0mm 1011.0 W/m2
11:20 83.8 °F /  28.8 °C 31.3 °F /  -0.4 °C 29.72in /  1006.3hPa West 2.0mph /  3.2km/h 10.0mph /  16.1km/h 15% 0.00in /  0mm 1020.0 W/m2
11:30 84.6 °F /  29.2 °C 31.8 °F /  -0.1 °C 29.72in /  1006.3hPa West 8.9mph /  14.3km/h 11.0mph /  17.7km/h 15% 0.00in /  0mm 1034.0 W/m2
11:36 84.2 °F /  29 °C 29.8 °F /  -1.2 °C 29.71in /  1006hPa South 0.9mph /  1.4km/h 7.0mph /  11.3km/h 14% 0.00in /  0mm 1051.0 W/m2
11:41 84.4 °F /  29.1 °C 31.6 °F /  -0.2 °C 29.71in /  1006hPa WNW 6.0mph /  9.7km/h 8.0mph /  12.9km/h 15% 0.00in /  0mm 1078.0 W/m2
11:46 84.9 °F /  29.4 °C 30.4 °F /  -0.9 °C 29.71in /  1006hPa West 0.9mph /  1.4km/h 1.0mph /  1.6km/h 14% 0.00in /  0mm 1176.0 W/m2
11:51 85.5 °F /  29.7 °C 30.9 °F /  -0.6 °C 29.71in /  1006hPa WNW 2.9mph /  4.7km/h 5.0mph /  8km/h 14% 0.00in /  0mm 1188.0 W/m2
11:56 85.6 °F /  29.8 °C 30.9 °F /  -0.6 °C 29.71in /  1006hPa NNW 0.9mph /  1.4km/h 4.0mph /  6.4km/h 14% 0.00in /  0mm 1148.0 W/m2
12:01 86.0 °F /  30 °C 31.3 °F /  -0.4 °C 29.71in /  1006hPa NNW 0.9mph /  1.4km/h 4.0mph /  6.4km/h 14% 0.00in /  0mm 244.0 W/m2
12:12 86.5 °F /  30.3 °C 31.6 °F /  -0.2 °C 29.70in /  1005.6hPa NNW 8.9mph /  14.3km/h 9.0mph /  14.5km/h 14% 0.00in /  0mm 1259.0 W/m2
12:17 87.1 °F /  30.6 °C 30.2 °F /  -1 °C 29.70in /  1005.6hPa North 2.9mph /  4.7km/h 3.0mph /  4.8km/h 13% 0.00in /  0mm 1271.0 W/m2
12:23 87.3 °F /  30.7 °C 30.4 °F /  -0.9 °C 29.70in /  1005.6hPa North 2.0mph /  3.2km/h 4.0mph /  6.4km/h 13% 0.00in /  0mm 1157.0 W/m2
12:28 87.3 °F /  30.7 °C 30.4 °F /  -0.9 °C 29.70in /  1005.6hPa NNE 10.1mph /  16.3km/h 12.0mph /  19.3km/h 13% 0.00in /  0mm 383.0 W/m2
12:33 86.2 °F /  30.1 °C 31.5 °F /  -0.3 °C 29.70in /  1005.6hPa ENE 2.9mph /  4.7km/h 5.0mph /  8km/h 14% 0.00in /  0mm 406.0 W/m2
12:44 86.2 °F /  30.1 °C 31.5 °F /  -0.3 °C 29.70in /  1005.6hPa NNW 2.0mph /  3.2km/h 8.0mph /  12.9km/h 14% 0.00in /  0mm 1417.0 W/m2
12:49 86.5 °F /  30.3 °C 31.6 °F /  -0.2 °C 29.69in /  1005.3hPa NNW 4.0mph /  6.4km/h 7.0mph /  11.3km/h 14% 0.00in /  0mm 306.0 W/m2
12:59 86.2 °F /  30.1 °C 33.1 °F /  0.6 °C 29.69in /  1005.3hPa Calm   4.0mph /  6.4km/h 15% 0.00in /  0mm 459.0 W/m2
13:04 86.5 °F /  30.3 °C 31.6 °F /  -0.2 °C 29.69in /  1005.3hPa WNW 0.9mph /  1.4km/h 6.0mph /  9.7km/h 14% 0.00in /  0mm 1222.0 W/m2
13:14 88.5 °F /  31.4 °C 31.5 °F /  -0.3 °C 29.69in /  1005.3hPa WNW 2.0mph /  3.2km/h 6.0mph /  9.7km/h 13% 0.00in /  0mm 1320.0 W/m2
13:19 88.3 °F /  31.3 °C 31.3 °F /  -0.4 °C 29.69in /  1005.3hPa Calm   2.0mph /  3.2km/h 13% 0.00in /  0mm 557.0 W/m2
13:25 88.3 °F /  31.3 °C 31.3 °F /  -0.4 °C 29.68in /  1005hPa Calm   3.0mph /  4.8km/h 13% 0.00in /  0mm 1218.0 W/m2
13:30 88.5 °F /  31.4 °C 31.5 °F /  -0.3 °C 29.68in /  1005hPa South 0.9mph /  1.4km/h 11.0mph /  17.7km/h 13% 0.00in /  0mm 1248.0 W/m2
13:45 88.2 °F /  31.2 °C 31.1 °F /  -0.5 °C 29.68in /  1005hPa West 0.9mph /  1.4km/h 7.0mph /  11.3km/h 13% 0.00in /  0mm 369.0 W/m2
13:50 88.3 °F /  31.3 °C 31.3 °F /  -0.4 °C 29.68in /  1005hPa WSW 2.9mph /  4.7km/h 5.0mph /  8km/h 13% 0.00in /  0mm 1297.0 W/m2
13:55 89.1 °F /  31.7 °C 31.8 °F /  -0.1 °C 29.67in /  1004.6hPa NNE 0.9mph /  1.4km/h 5.0mph /  8km/h 13% 0.00in /  0mm 1359.0 W/m2
14:01 89.4 °F /  31.9 °C 32.2 °F /  0.1 °C 29.67in /  1004.6hPa West 4.9mph /  7.9km/h 11.0mph /  17.7km/h 13% 0.00in /  0mm 346.0 W/m2
14:06 88.3 °F /  31.3 °C 33.1 °F /  0.6 °C 29.67in /  1004.6hPa NNW 6.0mph /  9.7km/h 6.0mph /  9.7km/h 14% 0.00in /  0mm 387.0 W/m2
14:11 88.0 °F /  31.1 °C 32.9 °F /  0.5 °C 29.67in /  1004.6hPa SW 6.0mph /  9.7km/h 7.0mph /  11.3km/h 14% 0.00in /  0mm 404.0 W/m2
14:16 87.4 °F /  30.8 °C 32.4 °F /  0.2 °C 29.67in /  1004.6hPa WSW 0.9mph /  1.4km/h 5.0mph /  8km/h 14% 0.00in /  0mm 306.0 W/m2
14:26 86.9 °F /  30.5 °C 32.0 °F /  0 °C 29.67in /  1004.6hPa ENE 2.9mph /  4.7km/h 3.0mph /  4.8km/h 14% 0.00in /  0mm 352.0 W/m2
14:31 87.1 °F /  30.6 °C 32.2 °F /  0.1 °C 29.67in /  1004.6hPa WNW 0.9mph /  1.4km/h 1.0mph /  1.6km/h 14% 0.00in /  0mm 1088.0 W/m2
14:36 87.4 °F /  30.8 °C 32.4 °F /  0.2 °C 29.67in /  1004.6hPa WNW 2.0mph /  3.2km/h 7.0mph /  11.3km/h 14% 0.00in /  0mm 367.0 W/m2
14:42 88.0 °F /  31.1 °C 32.9 °F /  0.5 °C 29.67in /  1004.6hPa NW 6.9mph /  11.1km/h 9.0mph /  14.5km/h 14% 0.00in /  0mm 207.0 W/m2
14:47 87.6 °F /  30.9 °C 30.7 °F /  -0.7 °C 29.67in /  1004.6hPa West 2.0mph /  3.2km/h 7.0mph /  11.3km/h 13% 0.00in /  0mm 197.0 W/m2
14:52 87.1 °F /  30.6 °C 32.2 °F /  0.1 °C 29.66in /  1004.3hPa SSW 0.9mph /  1.4km/h 4.0mph /  6.4km/h 14% 0.00in /  0mm 265.0 W/m2
14:57 87.1 °F /  30.6 °C 32.2 °F /  0.1 °C 29.66in /  1004.3hPa Calm   7.0mph /  11.3km/h 14% 0.00in /  0mm 1067.0 W/m2
15:02 87.4 °F /  30.8 °C 30.6 °F /  -0.8 °C 29.65in /  1003.9hPa West 2.9mph /  4.7km/h 5.0mph /  8km/h 13% 0.00in /  0mm 1046.0 W/m2
15:07 88.3 °F /  31.3 °C 31.3 °F /  -0.4 °C 29.65in /  1003.9hPa NW 4.0mph /  6.4km/h 7.0mph /  11.3km/h 13% 0.00in /  0mm 991.0 W/m2
15:12 89.2 °F /  31.8 °C 32.0 °F /  0 °C 29.65in /  1003.9hPa West 6.0mph /  9.7km/h 11.0mph /  17.7km/h 13% 0.00in /  0mm 954.0 W/m2
15:22 90.0 °F /  32.2 °C 30.6 °F /  -0.8 °C 29.65in /  1003.9hPa Calm   10.0mph /  16.1km/h 12% 0.00in /  0mm 884.0 W/m2
15:27 90.0 °F /  32.2 °C 30.6 °F /  -0.8 °C 29.65in /  1003.9hPa NNE 2.0mph /  3.2km/h 6.0mph /  9.7km/h 12% 0.00in /  0mm 125.0 W/m2
15:33 89.4 °F /  31.9 °C 30.2 °F /  -1 °C 29.65in /  1003.9hPa SW 4.9mph /  7.9km/h 5.0mph /  8km/h 12% 0.00in /  0mm 898.0 W/m2
15:43 90.0 °F /  32.2 °C 30.6 °F /  -0.8 °C 29.64in /  1003.6hPa Calm   7.0mph /  11.3km/h 12% 0.00in /  0mm 877.0 W/m2
15:48 89.4 °F /  31.9 °C 30.2 °F /  -1 °C 29.64in /  1003.6hPa NW 0.9mph /  1.4km/h 9.0mph /  14.5km/h 12% 0.00in /  0mm 186.0 W/m2
16:03 89.4 °F /  31.9 °C 32.2 °F /  0.1 °C 29.64in /  1003.6hPa WSW 2.9mph /  4.7km/h 3.0mph /  4.8km/h 13% 0.00in /  0mm 290.0 W/m2
16:09 90.3 °F /  32.4 °C 30.7 °F /  -0.7 °C 29.64in /  1003.6hPa NNW 0.9mph /  1.4km/h 13.0mph /  20.9km/h 12% 0.00in /  0mm 265.0 W/m2
16:20 89.4 °F /  31.9 °C 30.2 °F /  -1 °C 29.63in /  1003.3hPa West 2.9mph /  4.7km/h 5.0mph /  8km/h 12% 0.00in /  0mm 204.0 W/m2
16:30 88.3 °F /  31.3 °C 31.3 °F /  -0.4 °C 29.64in /  1003.6hPa NNW 0.9mph /  1.4km/h 7.0mph /  11.3km/h 13% 0.00in /  0mm 193.0 W/m2
16:40 87.3 °F /  30.7 °C 30.4 °F /  -0.9 °C 29.64in /  1003.6hPa WSW 4.0mph /  6.4km/h 11.0mph /  17.7km/h 13% 0.00in /  0mm 146.0 W/m2
16:45 86.5 °F /  30.3 °C 29.8 °F /  -1.2 °C 29.64in /  1003.6hPa Calm   1.0mph /  1.6km/h 13% 0.00in /  0mm 162.0 W/m2
16:50 86.5 °F /  30.3 °C 29.8 °F /  -1.2 °C 29.64in /  1003.6hPa WNW 4.0mph /  6.4km/h 4.0mph /  6.4km/h 13% 0.00in /  0mm 163.0 W/m2
16:55 86.4 °F /  30.2 °C 29.7 °F /  -1.3 °C 29.63in /  1003.3hPa NW 0.9mph /  1.4km/h 1.0mph /  1.6km/h 13% 0.00in /  0mm 156.0 W/m2
17:01 86.4 °F /  30.2 °C 29.7 °F /  -1.3 °C 29.63in /  1003.3hPa NW 0.9mph /  1.4km/h 1.0mph /  1.6km/h 13% 0.00in /  0mm 167.0 W/m2
17:06 86.4 °F /  30.2 °C 29.7 °F /  -1.3 °C 29.63in /  1003.3hPa NNW 2.0mph /  3.2km/h 3.0mph /  4.8km/h 13% 0.00in /  0mm 295.0 W/m2
17:12 86.4 °F /  30.2 °C 29.7 °F /  -1.3 °C 29.63in /  1003.3hPa WSW 2.9mph /  4.7km/h 11.0mph /  17.7km/h 13% 0.00in /  0mm 167.0 W/m2
17:17 85.8 °F /  29.9 °C 29.3 °F /  -1.5 °C 29.62in /  1002.9hPa SE 4.0mph /  6.4km/h 15.0mph /  24.1km/h 13% 0.00in /  0mm 174.0 W/m2
17:32 87.4 °F /  30.8 °C 28.6 °F /  -1.9 °C 29.63in /  1003.3hPa WNW 2.0mph /  3.2km/h 9.0mph /  14.5km/h 12% 0.00in /  0mm 427.0 W/m2
17:37 87.6 °F /  30.9 °C 28.8 °F /  -1.8 °C 29.63in /  1003.3hPa WNW 2.0mph /  3.2km/h 8.0mph /  12.9km/h 12% 0.00in /  0mm 399.0 W/m2
17:43 87.8 °F /  31 °C 28.9 °F /  -1.7 °C 29.63in /  1003.3hPa West 6.9mph /  11.1km/h 12.0mph /  19.3km/h 12% 0.00in /  0mm 378.0 W/m2
17:48 87.4 °F /  30.8 °C 28.6 °F /  -1.9 °C 29.63in /  1003.3hPa West 0.9mph /  1.4km/h 10.0mph /  16.1km/h 12% 0.00in /  0mm 330.0 W/m2
17:53 87.3 °F /  30.7 °C 28.4 °F /  -2 °C 29.63in /  1003.3hPa WSW 11.0mph /  17.7km/h 12.0mph /  19.3km/h 12% 0.00in /  0mm 287.0 W/m2
17:58 86.7 °F /  30.4 °C 28.0 °F /  -2.2 °C 29.63in /  1003.3hPa SW 4.0mph /  6.4km/h 7.0mph /  11.3km/h 12% 0.00in /  0mm 262.0 W/m2
18:03 86.7 °F /  30.4 °C 28.0 °F /  -2.2 °C 29.64in /  1003.6hPa WNW 6.9mph /  11.1km/h 10.0mph /  16.1km/h 12% 0.00in /  0mm 236.0 W/m2
18:24 84.6 °F /  29.2 °C 28.4 °F /  -2 °C 29.64in /  1003.6hPa WSW 6.9mph /  11.1km/h 9.0mph /  14.5km/h 13% 0.00in /  0mm 70.0 W/m2
18:29 84.2 °F /  29 °C 28.0 °F /  -2.2 °C 29.64in /  1003.6hPa WNW 2.9mph /  4.7km/h 6.0mph /  9.7km/h 13% 0.00in /  0mm 58.0 W/m2
18:35 83.8 °F /  28.8 °C 27.7 °F /  -2.4 °C 29.65in /  1003.9hPa West 6.9mph /  11.1km/h 13.0mph /  20.9km/h 13% 0.00in /  0mm 47.0 W/m2
18:40 83.5 °F /  28.6 °C 27.5 °F /  -2.5 °C 29.65in /  1003.9hPa West 4.9mph /  7.9km/h 8.0mph /  12.9km/h 13% 0.00in /  0mm 37.0 W/m2
18:45 82.9 °F /  28.3 °C 27.0 °F /  -2.8 °C 29.65in /  1003.9hPa WSW 6.9mph /  11.1km/h 10.0mph /  16.1km/h 13% 0.00in /  0mm 28.0 W/m2
18:50 82.6 °F /  28.1 °C 26.8 °F /  -2.9 °C 29.66in /  1004.3hPa West 6.0mph /  9.7km/h 8.0mph /  12.9km/h 13% 0.00in /  0mm 25.0 W/m2
18:55 82.2 °F /  27.9 °C 26.4 °F /  -3.1 °C 29.66in /  1004.3hPa WSW 2.0mph /  3.2km/h 11.0mph /  17.7km/h 13% 0.00in /  0mm 19.0 W/m2
19:00 81.9 °F /  27.7 °C 26.2 °F /  -3.2 °C 29.66in /  1004.3hPa SW 4.0mph /  6.4km/h 5.0mph /  8km/h 13% 0.00in /  0mm 16.0 W/m2
19:05 81.5 °F /  27.5 °C 25.9 °F /  -3.4 °C 29.67in /  1004.6hPa SSW 8.9mph /  14.3km/h 10.0mph /  16.1km/h 13% 0.00in /  0mm 12.0 W/m2
19:10 81.1 °F /  27.3 °C 25.7 °F /  -3.5 °C 29.67in /  1004.6hPa West 2.9mph /  4.7km/h 5.0mph /  8km/h 13% 0.00in /  0mm 9.0 W/m2
19:15 81.0 °F /  27.2 °C 25.5 °F /  -3.6 °C 29.67in /  1004.6hPa Calm   6.0mph /  9.7km/h 13% 0.00in /  0mm 5.0 W/m2
19:21 80.6 °F /  27 °C 27.0 °F /  -2.8 °C 29.67in /  1004.6hPa SW 4.9mph /  7.9km/h 9.0mph /  14.5km/h 14% 0.00in /  0mm 0.0 W/m2
19:31 80.1 °F /  26.7 °C 26.6 °F /  -3 °C 29.67in /  1004.6hPa West 4.0mph /  6.4km/h 10.0mph /  16.1km/h 14% 0.00in /  0mm 0.0 W/m2
19:36 79.9 °F /  26.6 °C 26.4 °F /  -3.1 °C 29.68in /  1005hPa West 2.0mph /  3.2km/h 7.0mph /  11.3km/h 14% 0.00in /  0mm 0.0 W/m2
19:41 79.5 °F /  26.4 °C 26.1 °F /  -3.3 °C 29.68in /  1005hPa West 2.9mph /  4.7km/h 7.0mph /  11.3km/h 14% 0.00in /  0mm 0.0 W/m2
19:51 79.0 °F /  26.1 °C 25.7 °F /  -3.5 °C 29.69in /  1005.3hPa WNW 0.9mph /  1.4km/h 9.0mph /  14.5km/h 14% 0.00in /  0mm 0.0 W/m2
19:56 78.6 °F /  25.9 °C 25.5 °F /  -3.6 °C 29.70in /  1005.6hPa SW 4.9mph /  7.9km/h 10.0mph /  16.1km/h 14% 0.00in /  0mm 0.0 W/m2
20:01 78.3 °F /  25.7 °C 26.8 °F /  -2.9 °C 29.70in /  1005.6hPa WSW 2.0mph /  3.2km/h 6.0mph /  9.7km/h 15% 0.00in /  0mm 0.0 W/m2
20:06 77.9 °F /  25.5 °C 26.6 °F /  -3 °C 29.70in /  1005.6hPa West 0.9mph /  1.4km/h 5.0mph /  8km/h 15% 0.00in /  0mm 0.0 W/m2
20:12 77.7 °F /  25.4 °C 26.4 °F /  -3.1 °C 29.70in /  1005.6hPa WSW 4.9mph /  7.9km/h 5.0mph /  8km/h 15% 0.00in /  0mm 0.0 W/m2
20:17 77.4 °F /  25.2 °C 26.1 °F /  -3.3 °C 29.71in /  1006hPa WSW 0.9mph /  1.4km/h 11.0mph /  17.7km/h 15% 0.00in /  0mm 0.0 W/m2
20:27 76.8 °F /  24.9 °C 25.7 °F /  -3.5 °C 29.71in /  1006hPa WSW 2.9mph /  4.7km/h 3.0mph /  4.8km/h 15% 0.00in /  0mm 0.0 W/m2
20:32 76.6 °F /  24.8 °C 27.1 °F /  -2.7 °C 29.71in /  1006hPa SW 0.9mph /  1.4km/h 5.0mph /  8km/h 16% 0.00in /  0mm 0.0 W/m2
20:48 76.1 °F /  24.5 °C 26.6 °F /  -3 °C 29.72in /  1006.3hPa WSW 0.9mph /  1.4km/h 4.0mph /  6.4km/h 16% 0.00in /  0mm 0.0 W/m2
20:53 75.9 °F /  24.4 °C 26.4 °F /  -3.1 °C 29.72in /  1006.3hPa WNW 0.9mph /  1.4km/h 8.0mph /  12.9km/h 16% 0.00in /  0mm 0.0 W/m2
21:04 75.6 °F /  24.2 °C 27.7 °F /  -2.4 °C 29.73in /  1006.7hPa SW 0.9mph /  1.4km/h 4.0mph /  6.4km/h 17% 0.00in /  0mm 0.0 W/m2
21:09 75.4 °F /  24.1 °C 27.5 °F /  -2.5 °C 29.73in /  1006.7hPa WSW 0.9mph /  1.4km/h 5.0mph /  8km/h 17% 0.00in /  0mm 0.0 W/m2
21:34 74.5 °F /  23.6 °C 26.8 °F /  -2.9 °C 29.74in /  1007hPa Calm   1.0mph /  1.6km/h 17% 0.00in /  0mm 0.0 W/m2
21:44 74.1 °F /  23.4 °C 27.9 °F /  -2.3 °C 29.75in /  1007.3hPa Calm     18% 0.00in /  0mm 0.0 W/m2
21:54 73.4 °F /  23 °C 27.3 °F /  -2.6 °C 29.75in /  1007.3hPa SE 2.0mph /  3.2km/h 2.0mph /  3.2km/h 18% 0.00in /  0mm 0.0 W/m2
22:00 73.0 °F /  22.8 °C 27.0 °F /  -2.8 °C 29.75in /  1007.3hPa Calm   2.0mph /  3.2km/h 18% 0.00in /  0mm 0.0 W/m2
22:05 72.9 °F /  22.7 °C 25.5 °F /  -3.6 °C 29.75in /  1007.3hPa SSW 0.9mph /  1.4km/h 8.0mph /  12.9km/h 17% 0.00in /  0mm 0.0 W/m2
22:10 73.2 °F /  22.9 °C 25.7 °F /  -3.5 °C 29.76in /  1007.7hPa ESE 4.0mph /  6.4km/h 7.0mph /  11.3km/h 17% 0.00in /  0mm 0.0 W/m2
22:15 73.4 °F /  23 °C 25.9 °F /  -3.4 °C 29.77in /  1008hPa SE 4.0mph /  6.4km/h 9.0mph /  14.5km/h 17% 0.00in /  0mm 0.0 W/m2
22:20 73.6 °F /  23.1 °C 26.1 °F /  -3.3 °C 29.77in /  1008hPa ESE 2.0mph /  3.2km/h 7.0mph /  11.3km/h 17% 0.00in /  0mm 0.0 W/m2
22:25 73.4 °F /  23 °C 25.9 °F /  -3.4 °C 29.77in /  1008hPa SE 2.0mph /  3.2km/h 5.0mph /  8km/h 17% 0.00in /  0mm 0.0 W/m2
22:30 73.2 °F /  22.9 °C 25.7 °F /  -3.5 °C 29.77in /  1008hPa SSE 2.0mph /  3.2km/h 4.0mph /  6.4km/h 17% 0.00in /  0mm 0.0 W/m2
22:35 72.9 °F /  22.7 °C 25.5 °F /  -3.6 °C 29.77in /  1008hPa SE 4.9mph /  7.9km/h 5.0mph /  8km/h 17% 0.00in /  0mm 0.0 W/m2
22:40 72.7 °F /  22.6 °C 26.8 °F /  -2.9 °C 29.77in /  1008hPa South 0.9mph /  1.4km/h 2.0mph /  3.2km/h 18% 0.00in /  0mm 0.0 W/m2
22:46 72.1 °F /  22.3 °C 26.2 °F /  -3.2 °C 29.77in /  1008hPa Calm   1.0mph /  1.6km/h 18% 0.00in /  0mm 0.0 W/m2
23:01 70.9 °F /  21.6 °C 26.6 °F /  -3 °C 29.77in /  1008hPa SSE 0.9mph /  1.4km/h 1.0mph /  1.6km/h 19% 0.00in /  0mm 0.0 W/m2
23:11 70.3 °F /  21.3 °C 26.1 °F /  -3.3 °C 29.77in /  1008hPa Calm   2.0mph /  3.2km/h 19% 0.00in /  0mm 0.0 W/m2
23:16 70.2 °F /  21.2 °C 26.1 °F /  -3.3 °C 29.77in /  1008hPa SE 0.9mph /  1.4km/h 3.0mph /  4.8km/h 19% 0.00in /  0mm 0.0 W/m2
23:21 70.2 °F /  21.2 °C 27.1 °F /  -2.7 °C 29.77in /  1008hPa Calm   1.0mph /  1.6km/h 20% 0.00in /  0mm 0.0 W/m2
23:27 70.0 °F /  21.1 °C 27.1 °F /  -2.7 °C 29.77in /  1008hPa Calm     20% 0.00in /  0mm 0.0 W/m2
23:32 69.4 °F /  20.8 °C 27.9 °F /  -2.3 °C 29.77in /  1008hPa SE 0.9mph /  1.4km/h 2.0mph /  3.2km/h 21% 0.00in /  0mm 0.0 W/m2
23:37 69.4 °F /  20.8 °C 27.9 °F /  -2.3 °C 29.77in /  1008hPa Calm   1.0mph /  1.6km/h 21% 0.00in /  0mm 0.0 W/m2
23:47 69.3 °F /  20.7 °C 27.7 °F /  -2.4 °C 29.77in /  1008hPa ESE 0.9mph /  1.4km/h 4.0mph /  6.4km/h 21% 0.00in /  0mm 0.0 W/m2
23:52 69.3 °F /  20.7 °C 27.7 °F /  -2.4 °C 29.77in /  1008hPa Calm   1.0mph /  1.6km/h 21% 0.00in /  0mm 0.0 W/m2
23:57 69.1 °F /  20.6 °C 27.5 °F /  -2.5 °C 29.77in /  1008hPa Calm     21% 0.00in /  0mm 0.0 W/m2
Olympia, Windhoek, Namibia
Compliments of Weather Underground - 3 mb